CheckWX is a tool to help pilots better visualize weather data.  It is not intended as a substitute for an official pre-flight weather briefing.

06:52:41 UTC

KACY TAF
Atlantic City International Airport
Atlantic City, New Jersey, USA
KACY 190520Z 1906/2006 02006KT P6SM BKN050 FM191500 05010KT P6SM FEW050 FM200100 VRB04KT P6SM FEW200

Sep-19@
06:00 UTC

Sep-19 @ 06:00 UTC

Sep-19@
15:00 UTC

Sep-19 @ 15:00 UTC

KACY 190520Z 1906/2006 02006KT P6SM BKN050
Wind
  • 020° at 6 KTS
Cloud Levels
  • Broken at 5,000' AGL

Sep-19@
15:00 UTC

Sep-19 @ 15:00 UTC

Sep-20@
01:00 UTC

Sep-20 @ 01:00 UTC

FM191500 05010KT P6SM FEW050

From

From Standard forecast or significant change

Wind
  • 050° at 10 KTS
Cloud Levels
  • Few at 5,000' AGL

Sep-20@
01:00 UTC

Sep-20 @ 01:00 UTC

Sep-20@
06:00 UTC

Sep-20 @ 06:00 UTC

FM200100 VRB04KT P6SM FEW200

From

From Standard forecast or significant change

Wind
  • Variable at 4 KTS
Cloud Levels
  • Few at 20,000' AGL